Time;durP1;ratioP1;P1;durP2;ratioP2;P2;SDS_P1;SDS_P2;PMS_P1;PMS_P2;Temp;Humidity;BMP_temperature;BMP_pressure;BME280_temperature;BME280_humidity;BME280_pressure;Samples;Min_cycle;Max_cycle;Signal;HPM_P1;HPM_P2
2023/09/19 00:01:44;;;;;;;0.10;0.10;;;19.60;38.90;;;;;;5070207;28;20222;-58
2023/09/19 00:04:15;;;;;;;0.08;0.08;;;19.60;38.80;;;;;;5070856;28;20230;-59
2023/09/19 00:06:46;;;;;;;0.00;0.00;;;19.60;38.70;;;;;;5070361;28;20245;-57
2023/09/19 00:09:17;;;;;;;0.00;0.00;;;19.60;38.70;;;;;;5070037;28;20194;-59
2023/09/19 00:11:52;;;;;;;0.00;0.00;;;19.70;38.70;;;;;;5070387;28;20207;-58
2023/09/19 00:14:24;;;;;;;0.00;0.00;;;19.70;38.90;;;;;;5070455;28;20249;-58
2023/09/19 00:16:55;;;;;;;0.10;0.10;;;19.70;39.90;;;;;;5070643;28;20187;-57
2023/09/19 00:19:26;;;;;;;0.00;0.00;;;19.80;40.10;;;;;;5071291;28;20198;-58
2023/09/19 00:21:57;;;;;;;0.10;0.10;;;19.90;40.10;;;;;;5071046;28;20258;-59
2023/09/19 00:24:27;;;;;;;0.00;0.00;;;19.90;40.10;;;;;;5074509;28;20201;-58
2023/09/19 00:27:00;;;;;;;0.05;0.05;;;19.90;40.00;;;;;;5074959;28;20199;-58
2023/09/19 00:29:31;;;;;;;0.03;0.03;;;20.00;39.70;;;;;;5071871;28;20237;-58
2023/09/19 00:32:03;;;;;;;0.00;0.00;;;20.00;39.60;;;;;;5074234;28;20223;-59
2023/09/19 00:34:35;;;;;;;0.00;0.00;;;20.10;39.60;;;;;;5074346;28;20253;-59
2023/09/19 00:37:06;;;;;;;0.00;0.00;;;20.10;39.40;;;;;;5074084;28;20578;-57
2023/09/19 00:39:37;;;;;;;0.00;0.00;;;20.10;39.30;;;;;;5074586;28;20217;-57
2023/09/19 00:42:09;;;;;;;0.00;0.00;;;20.10;39.20;;;;;;5070528;28;20561;-59
2023/09/19 00:44:40;;;;;;;0.00;0.00;;;20.20;39.20;;;;;;5073798;28;20195;-59
2023/09/19 00:47:15;;;;;;;0.00;0.00;;;20.20;39.20;;;;;;5073132;28;20191;-58
2023/09/19 00:49:52;;;;;;;0.03;0.03;;;20.20;39.20;;;;;;5074088;28;20607;-59
2023/09/19 00:52:23;;;;;;;0.00;0.00;;;20.20;39.10;;;;;;5073478;28;20209;-58
2023/09/19 00:54:54;;;;;;;0.00;0.00;;;20.30;39.10;;;;;;5073966;28;20223;-58
2023/09/19 00:57:27;;;;;;;0.00;0.00;;;20.30;39.10;;;;;;5053362;28;20229;-59
2023/09/19 00:59:59;;;;;;;0.00;0.00;;;20.30;39.00;;;;;;5067631;28;20257;-58
2023/09/19 01:02:31;;;;;;;0.00;0.00;;;20.30;39.10;;;;;;5073514;28;20206;-59
2023/09/19 01:05:04;;;;;;;0.00;0.00;;;20.30;39.10;;;;;;5073692;28;20575;-59
2023/09/19 01:07:35;;;;;;;0.10;0.10;;;20.30;39.10;;;;;;5072980;28;20234;-57
2023/09/19 01:10:09;;;;;;;0.00;0.00;;;20.40;39.20;;;;;;5073007;28;20218;-57
2023/09/19 01:12:51;;;;;;;0.00;0.00;;;20.40;39.30;;;;;;5072769;28;20191;-59
2023/09/19 01:15:33;;;;;;;0.00;0.00;;;20.40;39.40;;;;;;5072778;28;20214;-59
2023/09/19 01:18:14;;;;;;;0.00;0.00;;;20.40;39.40;;;;;;5073355;28;20199;-58
2023/09/19 01:20:56;;;;;;;0.00;0.00;;;20.40;39.40;;;;;;5072099;28;20242;-60
2023/09/19 01:23:34;;;;;;;0.10;0.10;;;20.50;39.50;;;;;;5072892;28;20613;-58
2023/09/19 01:26:21;;;;;;;0.00;0.00;;;20.50;39.50;;;;;;5072253;28;20187;-58
2023/09/19 01:29:23;;;;;;;0.03;0.03;;;20.50;39.40;;;;;;5073179;28;20218;-59
2023/09/19 01:31:56;;;;;;;0.00;0.00;;;20.50;39.40;;;;;;5071913;28;20241;-59
2023/09/19 01:34:27;;;;;;;0.00;0.00;;;20.50;39.50;;;;;;5070924;28;20225;-58
2023/09/19 01:36:58;;;;;;;0.00;0.00;;;20.50;39.50;;;;;;5072161;28;20260;-57
2023/09/19 01:39:29;;;;;;;0.05;0.05;;;20.50;39.50;;;;;;5072935;28;20551;-58
2023/09/19 01:42:06;;;;;;;0.00;0.00;;;20.60;39.50;;;;;;5072782;28;20293;-58
2023/09/19 01:44:57;;;;;;;0.00;0.00;;;20.60;39.60;;;;;;5072698;28;20549;-59
2023/09/19 01:47:36;;;;;;;0.00;0.00;;;20.60;39.60;;;;;;5072565;28;20205;-59
2023/09/19 01:50:15;;;;;;;0.00;0.00;;;20.60;39.60;;;;;;5071604;28;20218;-59
2023/09/19 01:52:55;;;;;;;0.00;0.00;;;20.60;39.70;;;;;;5053248;28;20199;-59
2023/09/19 01:55:29;;;;;;;0.00;0.00;;;20.60;39.60;;;;;;5053362;28;20323;-60
2023/09/19 01:58:08;;;;;;;0.00;0.00;;;20.70;39.70;;;;;;5073083;28;20199;-58
2023/09/19 02:00:42;;;;;;;0.00;0.00;;;20.70;39.70;;;;;;5053839;28;20211;-59
2023/09/19 02:03:16;;;;;;;0.00;0.00;;;20.70;39.80;;;;;;5072236;28;20194;-59
2023/09/19 02:05:53;;;;;;;0.00;0.00;;;20.70;39.80;;;;;;5072236;28;20218;-58
2023/09/19 02:08:25;;;;;;;0.00;0.00;;;20.70;39.90;;;;;;5072504;28;20194;-59
2023/09/19 02:10:56;;;;;;;0.00;0.00;;;20.80;39.90;;;;;;5071877;28;20264;-59
2023/09/19 02:13:28;;;;;;;0.00;0.00;;;20.80;39.90;;;;;;5071782;28;20216;-58
2023/09/19 02:15:58;;;;;;;0.00;0.00;;;20.80;39.90;;;;;;5071495;28;20301;-58
2023/09/19 02:18:31;;;;;;;0.00;0.00;;;20.80;40.00;;;;;;5071529;28;20206;-58
2023/09/19 02:21:01;;;;;;;0.00;0.00;;;20.90;40.10;;;;;;5070795;28;20253;-58
2023/09/19 02:23:33;;;;;;;0.00;0.00;;;20.90;40.10;;;;;;5051308;28;20281;-58
2023/09/19 02:26:04;;;;;;;0.00;0.00;;;20.90;40.70;;;;;;5056228;28;20685;-57
2023/09/19 02:28:35;;;;;;;0.00;0.00;;;20.90;40.10;;;;;;5071245;28;20199;-58
2023/09/19 02:31:07;;;;;;;0.00;0.00;;;21.00;40.20;;;;;;5071875;28;20250;-58
2023/09/19 02:33:40;;;;;;;0.00;0.00;;;21.00;40.20;;;;;;5071244;28;20205;-60
2023/09/19 02:36:10;;;;;;;0.00;0.00;;;21.10;40.20;;;;;;5070795;28;20218;-59
2023/09/19 02:38:41;;;;;;;0.00;0.00;;;21.10;40.20;;;;;;5071716;28;20199;-58
2023/09/19 02:41:12;;;;;;;0.00;0.00;;;21.10;40.20;;;;;;5083447;22;20198;-46
2023/09/19 02:43:43;;;;;;;0.10;0.10;;;21.20;40.30;;;;;;5071729;28;20234;-47
2023/09/19 02:46:13;;;;;;;0.00;0.00;;;21.20;40.30;;;;;;5071104;28;20522;-47
2023/09/19 02:48:47;;;;;;;0.00;0.00;;;21.20;40.30;;;;;;5071411;28;20665;-47
2023/09/19 02:51:17;;;;;;;0.00;0.00;;;21.30;40.40;;;;;;5070838;28;20294;-48
2023/09/19 02:53:49;;;;;;;0.00;0.00;;;21.30;40.40;;;;;;5071294;28;20202;-48
2023/09/19 02:56:19;;;;;;;0.00;0.00;;;21.30;40.40;;;;;;5056800;28;20308;-48
2023/09/19 02:58:51;;;;;;;0.00;0.00;;;21.40;40.50;;;;;;5055736;28;20699;-47
2023/09/19 03:01:21;;;;;;;0.00;0.00;;;21.40;40.50;;;;;;5071801;28;20214;-47
2023/09/19 03:03:54;;;;;;;0.05;0.05;;;21.40;40.50;;;;;;5070193;28;20300;-47
2023/09/19 03:06:25;;;;;;;0.03;0.03;;;21.50;41.20;;;;;;5051146;28;20223;-48
2023/09/19 03:08:56;;;;;;;0.00;0.00;;;21.50;40.50;;;;;;5051936;28;20195;-52
2023/09/19 03:11:27;;;;;;;0.00;0.00;;;21.50;40.20;;;;;;5051580;28;20573;-47
2023/09/19 03:13:57;;;;;;;0.00;0.00;;;21.60;40.10;;;;;;5051596;28;20191;-47
2023/09/19 03:16:28;;;;;;;0.00;0.00;;;21.60;40.10;;;;;;5051533;28;20594;-53
2023/09/19 03:19:01;;;;;;;0.00;0.00;;;21.70;39.90;;;;;;5051542;28;20552;-48
2023/09/19 03:21:32;;;;;;;0.00;0.00;;;21.70;39.40;;;;;;5051467;28;20698;-48
2023/09/19 03:24:03;;;;;;;0.00;0.00;;;21.80;39.60;;;;;;5051601;28;20659;-47
2023/09/19 03:26:33;;;;;;;0.00;0.00;;;21.80;39.60;;;;;;5051618;28;20200;-48
2023/09/19 03:29:09;;;;;;;0.00;0.00;;;21.90;39.70;;;;;;5051166;28;20192;-48
2023/09/19 03:31:40;;;;;;;0.00;0.00;;;22.00;39.80;;;;;;5050588;28;20213;-48
2023/09/19 03:34:13;;;;;;;0.00;0.00;;;22.00;39.80;;;;;;5050443;28;20188;-47
2023/09/19 03:36:43;;;;;;;0.00;0.00;;;22.00;39.80;;;;;;5051299;28;20199;-47
2023/09/19 03:39:15;;;;;;;0.00;0.00;;;22.10;39.90;;;;;;5051281;28;20686;-47
2023/09/19 03:41:46;;;;;;;0.00;0.00;;;22.20;40.00;;;;;;5069849;22;20219;-58
2023/09/19 03:44:16;;;;;;;0.00;0.00;;;22.20;40.00;;;;;;5071109;28;20205;-58
2023/09/19 03:46:47;;;;;;;0.00;0.00;;;22.20;40.10;;;;;;5071270;28;20202;-58
2023/09/19 03:49:20;;;;;;;0.00;0.00;;;22.20;40.10;;;;;;5071162;28;20218;-60
2023/09/19 03:51:50;;;;;;;0.00;0.00;;;22.30;40.10;;;;;;5071381;28;20670;-59
2023/09/19 03:54:21;;;;;;;0.00;0.00;;;22.30;40.10;;;;;;5071048;28;20470;-58
2023/09/19 03:56:51;;;;;;;0.00;0.00;;;22.40;40.20;;;;;;5071038;28;20190;-58
2023/09/19 03:59:22;;;;;;;0.00;0.00;;;22.40;40.10;;;;;;5074906;28;20555;-58
2023/09/19 04:01:55;;;;;;;0.00;0.00;;;22.50;40.10;;;;;;5075199;28;20215;-59
2023/09/19 04:04:29;;;;;;;0.00;0.00;;;22.50;40.00;;;;;;5074903;28;20225;-58
2023/09/19 04:06:59;;;;;;;0.00;0.00;;;22.60;40.10;;;;;;5074964;28;20245;-58
2023/09/19 04:09:30;;;;;;;0.00;0.00;;;22.60;40.10;;;;;;5074699;28;20206;-57
2023/09/19 04:12:01;;;;;;;0.00;0.00;;;22.60;40.10;;;;;;5074853;28;20219;-58
2023/09/19 04:14:31;;;;;;;0.00;0.00;;;22.60;40.10;;;;;;5074642;28;20612;-58
2023/09/19 04:17:02;;;;;;;0.00;0.00;;;22.70;40.10;;;;;;5074429;28;20203;-58
2023/09/19 04:19:35;;;;;;;0.00;0.00;;;22.70;40.10;;;;;;5074766;28;20643;-59
2023/09/19 04:22:06;;;;;;;0.10;0.10;;;22.70;40.10;;;;;;5075013;28;20201;-58
2023/09/19 04:24:37;;;;;;;0.00;0.00;;;22.70;40.10;;;;;;5074913;28;20195;-59
2023/09/19 04:27:09;;;;;;;0.00;0.00;;;22.80;40.20;;;;;;5074786;28;20198;-58
2023/09/19 04:29:41;;;;;;;0.05;0.05;;;22.80;40.10;;;;;;5074716;28;20249;-58
2023/09/19 04:32:13;;;;;;;0.00;0.00;;;22.80;40.10;;;;;;5073855;28;20194;-58
2023/09/19 04:34:45;;;;;;;0.00;0.00;;;22.90;40.10;;;;;;5059486;28;20198;-59
2023/09/19 04:37:16;;;;;;;0.00;0.00;;;23.00;40.10;;;;;;5074186;28;20199;-59
2023/09/19 04:39:46;;;;;;;0.00;0.00;;;23.00;40.00;;;;;;5074410;28;20272;-58
2023/09/19 04:42:17;;;;;;;0.00;0.00;;;23.00;40.00;;;;;;5074184;28;20458;-59
2023/09/19 04:44:49;;;;;;;0.00;0.00;;;23.00;40.00;;;;;;5074308;28;20371;-59
2023/09/19 04:47:21;;;;;;;0.03;0.03;;;23.00;39.80;;;;;;5073994;28;20245;-58
2023/09/19 04:49:53;;;;;;;0.00;0.00;;;23.10;39.90;;;;;;5074027;28;20195;-59
2023/09/19 04:52:24;;;;;;;0.00;0.00;;;23.10;39.90;;;;;;5074088;28;20195;-59
2023/09/19 04:54:54;;;;;;;0.00;0.00;;;23.10;39.90;;;;;;5074139;28;20202;-58
2023/09/19 04:57:25;;;;;;;0.00;0.00;;;23.20;39.90;;;;;;5074010;28;20673;-58
2023/09/19 04:59:56;;;;;;;0.00;0.00;;;23.20;39.90;;;;;;5074000;28;20210;-59
2023/09/19 05:02:26;;;;;;;0.00;0.00;;;23.20;40.00;;;;;;5074058;28;20206;-59
2023/09/19 05:04:59;;;;;;;0.00;0.00;;;23.20;39.90;;;;;;5074037;28;20603;-58
2023/09/19 05:07:30;;;;;;;0.00;0.00;;;23.30;40.00;;;;;;5073980;28;20202;-59
2023/09/19 05:10:01;;;;;;;0.00;0.00;;;23.30;40.00;;;;;;5073317;28;20218;-59
2023/09/19 05:12:31;;;;;;;0.00;0.00;;;23.30;40.00;;;;;;5073741;28;20198;-58
2023/09/19 05:15:02;;;;;;;0.00;0.00;;;23.40;40.00;;;;;;5073503;28;20222;-59
2023/09/19 05:17:33;;;;;;;0.00;0.00;;;23.40;40.00;;;;;;5073827;28;20202;-59
2023/09/19 05:20:15;;;;;;;0.00;0.00;;;23.40;40.10;;;;;;5073419;28;20215;-59
2023/09/19 05:22:46;;;;;;;0.00;0.00;;;23.40;40.10;;;;;;5073412;28;20203;-58
2023/09/19 05:25:17;;;;;;;0.00;0.00;;;23.40;40.10;;;;;;5073196;28;20194;-59
2023/09/19 05:27:48;;;;;;;0.00;0.00;;;23.40;40.10;;;;;;5072746;28;20193;-58
2023/09/19 05:30:20;;;;;;;0.00;0.00;;;23.40;40.10;;;;;;5072895;28;20230;-60
2023/09/19 05:32:51;;;;;;;0.00;0.00;;;23.50;40.20;;;;;;5072515;28;20651;-59
2023/09/19 05:35:23;;;;;;;0.00;0.00;;;23.40;40.10;;;;;;5072914;28;20278;-59
2023/09/19 05:37:55;;;;;;;0.00;0.00;;;23.50;40.20;;;;;;5072810;28;20214;-59
2023/09/19 05:40:27;;;;;;;0.00;0.00;;;23.50;40.20;;;;;;5073381;28;20301;-60
2023/09/19 05:42:57;;;;;;;0.00;0.00;;;23.50;40.20;;;;;;5073654;28;20203;-60
2023/09/19 05:45:28;;;;;;;0.00;0.00;;;23.40;40.10;;;;;;5073393;28;20203;-58
2023/09/19 05:48:05;;;;;;;0.00;0.00;;;23.50;40.10;;;;;;5073310;28;20198;-59
2023/09/19 05:50:38;;;;;;;0.00;0.00;;;23.50;40.10;;;;;;5072988;28;20219;-59
2023/09/19 05:53:11;;;;;;;0.00;0.00;;;23.40;40.10;;;;;;5073040;28;20231;-60
2023/09/19 05:55:42;;;;;;;0.00;0.00;;;23.40;40.10;;;;;;5072587;28;20215;-59
2023/09/19 05:58:13;;;;;;;0.00;0.00;;;23.40;40.20;;;;;;5072853;28;20221;-59
2023/09/19 06:00:47;;;;;;;0.00;0.00;;;23.40;40.20;;;;;;5072801;28;20225;-59
2023/09/19 06:03:18;;;;;;;0.00;0.00;;;23.40;40.30;;;;;;5072806;28;20256;-59
2023/09/19 06:05:52;;;;;;;0.00;0.00;;;23.40;40.30;;;;;;5072687;28;20203;-59
2023/09/19 06:08:23;;;;;;;0.00;0.00;;;23.40;40.30;;;;;;5072798;28;20268;-60
2023/09/19 06:10:54;;;;;;;0.00;0.00;;;23.40;40.20;;;;;;5072318;28;20222;-59
2023/09/19 06:13:26;;;;;;;0.00;0.00;;;23.40;40.30;;;;;;5072637;28;20212;-59
2023/09/19 06:15:58;;;;;;;0.00;0.00;;;23.40;40.20;;;;;;5071955;28;20276;-60
2023/09/19 06:18:29;;;;;;;0.00;0.00;;;23.40;40.20;;;;;;5071946;28;20675;-60
2023/09/19 06:21:05;;;;;;;0.00;0.00;;;23.40;40.20;;;;;;5071695;28;20214;-59
2023/09/19 06:23:36;;;;;;;0.00;0.00;;;23.40;40.20;;;;;;5072005;28;20191;-59
2023/09/19 06:26:08;;;;;;;0.00;0.00;;;23.40;40.20;;;;;;5072207;28;20198;-59
2023/09/19 06:28:38;;;;;;;0.00;0.00;;;23.40;40.20;;;;;;5072139;28;20194;-59
2023/09/19 06:31:09;;;;;;;0.00;0.00;;;23.30;40.20;;;;;;5072037;28;20222;-59
2023/09/19 06:33:40;;;;;;;0.00;0.00;;;23.30;40.20;;;;;;5071777;28;20198;-60
2023/09/19 06:36:12;;;;;;;0.08;0.08;;;23.30;40.20;;;;;;5071904;28;20238;-60
2023/09/19 06:38:43;;;;;;;0.00;0.00;;;23.30;40.20;;;;;;5071919;28;20190;-58
2023/09/19 06:41:15;;;;;;;0.00;0.00;;;23.30;40.30;;;;;;5072017;28;20218;-59
2023/09/19 06:43:46;;;;;;;0.00;0.00;;;23.30;40.30;;;;;;5071862;28;20274;-59
2023/09/19 06:46:17;;;;;;;0.00;0.00;;;23.20;40.30;;;;;;5072698;28;20194;-59
2023/09/19 06:48:47;;;;;;;0.00;0.00;;;23.30;40.40;;;;;;5072532;28;20598;-59
2023/09/19 06:51:20;;;;;;;0.00;0.00;;;23.20;40.30;;;;;;5071610;28;20681;-58
2023/09/19 06:53:51;;;;;;;0.00;0.00;;;23.30;40.40;;;;;;5072327;28;20557;-60
2023/09/19 06:56:25;;;;;;;0.00;0.00;;;23.20;40.30;;;;;;5052007;28;20226;-61
2023/09/19 06:58:56;;;;;;;0.00;0.00;;;23.20;40.40;;;;;;5051579;28;20728;-60
2023/09/19 07:01:27;;;;;;;0.00;0.00;;;23.20;40.40;;;;;;5051522;28;20223;-58
2023/09/19 07:03:57;;;;;;;0.00;0.00;;;23.10;40.50;;;;;;5051338;28;20286;-60
2023/09/19 07:06:30;;;;;;;0.00;0.00;;;23.20;40.40;;;;;;5071377;28;20198;-59
2023/09/19 07:09:00;;;;;;;0.00;0.00;;;23.10;41.00;;;;;;5071601;28;20277;-60
2023/09/19 07:11:33;;;;;;;0.10;0.10;;;23.10;40.40;;;;;;5071490;28;20222;-60
2023/09/19 07:14:05;;;;;;;0.00;0.00;;;23.10;40.40;;;;;;5071037;28;20199;-59
2023/09/19 07:16:36;;;;;;;0.00;0.00;;;23.10;40.50;;;;;;5071481;28;20712;-59
2023/09/19 07:19:07;;;;;;;0.00;0.00;;;23.10;40.50;;;;;;5051568;28;20191;-59
2023/09/19 07:21:40;;;;;;;0.10;0.10;;;23.00;40.50;;;;;;5051264;28;20216;-60
2023/09/19 07:24:11;;;;;;;0.00;0.00;;;23.00;40.50;;;;;;5051486;28;20196;-59
2023/09/19 07:26:41;;;;;;;0.00;0.00;;;23.00;40.50;;;;;;5051463;28;20245;-60
2023/09/19 07:29:12;;;;;;;0.00;0.00;;;23.00;40.50;;;;;;5066376;28;20195;-58
2023/09/19 07:31:44;;;;;;;0.00;0.00;;;23.00;40.60;;;;;;5072262;28;20233;-60
2023/09/19 07:34:14;;;;;;;0.00;0.00;;;23.00;40.60;;;;;;5075394;28;20194;-60
2023/09/19 07:36:47;;;;;;;0.00;0.00;;;23.00;40.60;;;;;;5075129;28;20249;-59
2023/09/19 07:39:17;;;;;;;0.00;0.00;;;23.00;40.60;;;;;;5055706;28;20210;-60
2023/09/19 07:41:48;;;;;;;0.00;0.00;;;23.00;40.70;;;;;;5055242;28;20234;-60
2023/09/19 07:44:19;;;;;;;0.00;0.00;;;22.90;40.60;;;;;;5055069;28;20196;-60
2023/09/19 07:46:50;;;;;;;0.00;0.00;;;22.90;40.60;;;;;;5055434;28;20203;-59
2023/09/19 07:49:21;;;;;;;0.00;0.00;;;22.90;40.60;;;;;;5055139;28;20195;-59
2023/09/19 07:51:54;;;;;;;0.00;0.00;;;22.90;40.60;;;;;;5055623;28;20215;-59
2023/09/19 07:54:25;;;;;;;0.00;0.00;;;22.90;40.70;;;;;;5054700;28;20599;-59
2023/09/19 07:56:56;;;;;;;0.00;0.00;;;22.90;40.70;;;;;;5054258;28;20223;-61
2023/09/19 07:59:26;;;;;;;0.00;0.00;;;22.80;40.70;;;;;;5054934;28;20197;-59
2023/09/19 08:01:57;;;;;;;0.00;0.00;;;22.80;40.70;;;;;;5054911;28;20226;-59
2023/09/19 08:04:28;;;;;;;0.00;0.00;;;22.80;40.70;;;;;;5058044;28;20246;-59
2023/09/19 08:07:00;;;;;;;0.00;0.00;;;22.70;40.80;;;;;;5075169;28;20202;-59
2023/09/19 08:09:34;;;;;;;0.00;0.00;;;22.70;40.80;;;;;;5075418;28;20594;-60
2023/09/19 08:12:06;;;;;;;0.00;0.00;;;22.70;40.80;;;;;;5074017;28;20190;-59
2023/09/19 08:14:37;;;;;;;0.00;0.00;;;22.70;40.80;;;;;;5074629;28;20198;-59
2023/09/19 08:17:08;;;;;;;0.00;0.00;;;22.70;40.90;;;;;;5074817;28;20234;-59
2023/09/19 08:19:40;;;;;;;0.00;0.00;;;22.70;40.90;;;;;;5074698;28;20329;-59
2023/09/19 08:22:13;;;;;;;0.00;0.00;;;22.70;40.90;;;;;;5074594;28;20199;-59
2023/09/19 08:24:43;;;;;;;0.00;0.00;;;22.70;40.90;;;;;;5074993;28;20202;-59
2023/09/19 08:27:14;;;;;;;0.00;0.00;;;22.70;40.90;;;;;;5074049;28;20206;-58
2023/09/19 08:29:45;;;;;;;0.00;0.00;;;22.70;40.90;;;;;;5074390;28;20710;-60
2023/09/19 08:32:15;;;;;;;0.00;0.00;;;22.60;40.90;;;;;;5074818;28;20198;-59
2023/09/19 08:34:46;;;;;;;0.00;0.00;;;22.60;40.90;;;;;;5074191;28;20210;-59
2023/09/19 08:37:19;;;;;;;0.00;0.00;;;22.60;41.00;;;;;;5074185;28;20222;-60
2023/09/19 08:39:49;;;;;;;0.08;0.08;;;22.60;41.00;;;;;;5073939;28;20230;-58
2023/09/19 08:42:21;;;;;;;0.00;0.00;;;22.60;41.00;;;;;;5073304;28;20202;-59
2023/09/19 08:44:55;;;;;;;0.00;0.00;;;22.50;41.00;;;;;;5073481;28;20230;-60
2023/09/19 08:47:36;;;;;;;0.00;0.00;;;22.50;41.00;;;;;;5074207;28;20199;-60
2023/09/19 08:50:18;;;;;;;0.00;0.00;;;22.50;41.00;;;;;;5073239;28;20702;-58
2023/09/19 08:52:54;;;;;;;0.00;0.00;;;22.50;41.10;;;;;;5073766;28;20206;-59
2023/09/19 08:55:29;;;;;;;0.00;0.00;;;22.50;41.20;;;;;;5070455;28;20723;-60
2023/09/19 08:58:06;;;;;;;0.00;0.00;;;22.50;41.20;;;;;;5071557;28;20222;-60
2023/09/19 09:00:42;;;;;;;0.00;0.00;;;22.50;41.30;;;;;;5072921;28;20209;-61
2023/09/19 09:03:14;;;;;;;0.00;0.00;;;22.40;41.30;;;;;;5073497;28;20198;-61
2023/09/19 09:05:50;;;;;;;0.00;0.00;;;22.50;41.30;;;;;;5073513;28;20245;-60
2023/09/19 09:08:23;;;;;;;0.00;0.00;;;22.50;41.40;;;;;;5072317;28;20202;-59
2023/09/19 09:10:54;;;;;;;0.00;0.00;;;22.40;41.40;;;;;;5072590;28;20769;-58
2023/09/19 09:13:27;;;;;;;0.00;0.00;;;22.40;41.30;;;;;;5072179;28;20594;-60
2023/09/19 09:15:59;;;;;;;0.00;0.00;;;22.40;41.40;;;;;;5073504;28;20195;-59
2023/09/19 09:18:30;;;;;;;0.03;0.03;;;22.40;41.40;;;;;;5072410;28;20326;-60
2023/09/19 09:21:01;;;;;;;0.00;0.00;;;22.40;41.50;;;;;;5072585;28;20666;-58
2023/09/19 09:23:34;;;;;;;0.00;0.00;;;22.40;41.50;;;;;;5072210;28;20203;-59
2023/09/19 09:26:06;;;;;;;0.00;0.00;;;22.40;41.50;;;;;;5069350;28;20198;-60
2023/09/19 09:28:38;;;;;;;0.10;0.10;;;22.40;41.50;;;;;;5072542;28;20264;-60
2023/09/19 09:31:24;;;;;;;0.00;0.00;;;22.30;41.50;;;;;;5071792;28;20264;-59
2023/09/19 09:33:57;;;;;;;0.00;0.00;;;22.30;41.50;;;;;;5052423;28;20589;-60
2023/09/19 09:36:41;;;;;;;0.00;0.00;;;22.30;41.50;;;;;;5072494;28;20244;-60
2023/09/19 09:39:24;;;;;;;0.00;0.00;;;22.30;41.60;;;;;;5072372;28;20213;-59
2023/09/19 09:41:59;;;;;;;0.00;0.00;;;22.30;41.60;;;;;;5051938;28;20223;-59
2023/09/19 09:44:31;;;;;;;0.00;0.00;;;22.30;41.70;;;;;;5053687;28;20199;-59
2023/09/19 09:50:06;;;;;;;0.00;0.00;;;22.30;41.70;;;;;;5064228;28;20191;-60
2023/09/19 09:52:48;;;;;;;0.00;0.00;;;22.30;41.70;;;;;;5072202;28;20225;-59
2023/09/19 09:55:21;;;;;;;0.00;0.00;;;22.20;41.70;;;;;;5070959;28;20214;-61
2023/09/19 09:58:29;;;;;;;0.00;0.00;;;22.20;41.70;;;;;;5071400;28;20226;-59
2023/09/19 10:01:03;;;;;;;0.00;0.00;;;22.20;41.70;;;;;;5071789;28;20218;-60
2023/09/19 10:03:39;;;;;;;0.00;0.00;;;22.20;41.70;;;;;;5072033;28;20199;-60
2023/09/19 10:06:30;;;;;;;0.00;0.00;;;22.20;41.70;;;;;;5071573;28;20555;-58
2023/09/19 10:09:14;;;;;;;0.00;0.00;;;22.20;41.70;;;;;;5072389;28;20199;-60
2023/09/19 10:11:47;;;;;;;0.10;0.10;;;22.20;41.80;;;;;;5071150;28;20276;-59
2023/09/19 10:14:23;;;;;;;0.00;0.00;;;22.20;41.80;;;;;;5070670;28;20663;-59
2023/09/19 10:17:00;;;;;;;0.00;0.00;;;22.10;41.80;;;;;;5070653;28;20515;-59
2023/09/19 10:19:36;;;;;;;0.00;0.00;;;22.10;41.90;;;;;;5070901;28;20283;-58
2023/09/19 10:22:09;;;;;;;0.00;0.00;;;22.10;41.90;;;;;;5052248;28;20195;-60
2023/09/19 10:24:41;;;;;;;0.00;0.00;;;22.10;41.90;;;;;;5053407;28;20208;-60
2023/09/19 10:27:19;;;;;;;0.00;0.00;;;22.10;41.90;;;;;;5071769;28;20203;-58
2023/09/19 10:29:52;;;;;;;0.00;0.00;;;22.10;41.90;;;;;;5071620;28;20209;-58
2023/09/19 10:32:23;;;;;;;0.00;0.00;;;22.10;41.90;;;;;;5071115;28;20233;-58
2023/09/19 10:34:55;;;;;;;0.00;0.00;;;22.00;41.90;;;;;;5068623;28;20561;-60
2023/09/19 10:37:30;;;;;;;0.00;0.00;;;22.10;41.90;;;;;;5071335;28;20311;-60
2023/09/19 10:40:05;;;;;;;0.00;0.00;;;22.00;41.90;;;;;;5070813;28;20331;-59
2023/09/19 10:42:43;;;;;;;0.10;0.10;;;22.00;41.90;;;;;;5070969;28;20199;-59
2023/09/19 10:45:15;;;;;;;0.00;0.00;;;22.00;41.90;;;;;;5070627;28;20274;-60
2023/09/19 10:47:46;;;;;;;0.00;0.00;;;22.00;41.90;;;;;;5071276;28;20195;-57
2023/09/19 10:50:24;;;;;;;0.00;0.00;;;22.00;42.00;;;;;;5071380;28;20279;-61
2023/09/19 10:53:00;;;;;;;0.00;0.00;;;22.00;42.00;;;;;;5071234;28;20561;-60
2023/09/19 10:55:32;;;;;;;0.00;0.00;;;22.00;42.00;;;;;;5070947;28;20714;-60
2023/09/19 10:58:14;;;;;;;0.00;0.00;;;22.00;42.00;;;;;;5071233;28;20219;-60
2023/09/19 11:00:57;;;;;;;0.00;0.00;;;22.00;42.00;;;;;;5071566;28;20211;-59
2023/09/19 11:03:30;;;;;;;0.00;0.00;;;22.00;42.10;;;;;;5071296;28;20230;-56
2023/09/19 11:06:13;;;;;;;0.10;0.10;;;21.90;42.00;;;;;;5071388;28;20234;-58
2023/09/19 11:09:06;;;;;;;0.00;0.00;;;21.90;42.70;;;;;;5070778;28;20672;-57
2023/09/19 11:11:52;;;;;;;0.00;0.00;;;21.90;42.10;;;;;;5070291;28;20228;-57
2023/09/19 11:14:47;;;;;;;0.00;0.00;;;21.90;42.70;;;;;;5070367;28;20190;-59
2023/09/19 11:17:45;;;;;;;0.05;0.05;;;21.90;42.10;;;;;;5071402;28;20226;-58
2023/09/19 11:20:35;;;;;;;0.00;0.00;;;21.90;42.10;;;;;;5070631;28;20214;-59
2023/09/19 11:23:26;;;;;;;0.00;0.00;;;21.90;42.10;;;;;;5071222;28;20202;-58
2023/09/19 11:25:57;;;;;;;0.00;0.00;;;21.90;42.20;;;;;;5071358;28;20530;-60
2023/09/19 11:28:36;;;;;;;0.00;0.00;;;21.90;42.10;;;;;;5071602;28;20286;-59
2023/09/19 11:31:55;;;;;;;0.00;0.00;;;21.80;42.20;;;;;;5071289;28;20224;-61
2023/09/19 11:34:50;;;;;;;0.00;0.00;;;21.80;42.20;;;;;;5070929;28;20297;-57
2023/09/19 11:38:16;;;;;;;0.00;0.00;;;21.80;42.20;;;;;;5071330;28;20307;-56
2023/09/19 11:40:55;;;;;;;0.10;0.10;;;21.80;42.20;;;;;;5070754;28;20243;-52
2023/09/19 11:43:40;;;;;;;0.10;0.10;;;21.80;42.20;;;;;;5051180;28;20203;-56
2023/09/19 11:46:16;;;;;;;0.00;0.00;;;21.80;42.30;;;;;;5051513;28;20202;-61
2023/09/19 11:48:47;;;;;;;0.10;0.10;;;21.80;42.40;;;;;;5051498;28;20206;-60
2023/09/19 11:51:22;;;;;;;0.00;0.00;;;21.80;42.40;;;;;;5051365;28;20277;-60
2023/09/19 11:53:54;;;;;;;0.00;0.00;;;21.70;42.40;;;;;;5050901;28;20651;-58
2023/09/19 11:56:27;;;;;;;0.00;0.00;;;21.80;42.50;;;;;;5051624;28;20203;-59
2023/09/19 11:58:59;;;;;;;0.00;0.00;;;21.70;42.40;;;;;;5051412;28;20227;-59
2023/09/19 12:01:33;;;;;;;0.00;0.00;;;21.80;42.40;;;;;;5051149;28;20219;-59
2023/09/19 12:04:06;;;;;;;0.10;0.10;;;21.70;42.40;;;;;;5051228;28;20227;-54
2023/09/19 12:06:38;;;;;;;0.00;0.00;;;21.70;42.40;;;;;;5051059;28;20261;-54
2023/09/19 12:09:16;;;;;;;0.00;0.00;;;21.70;42.40;;;;;;5051121;28;20669;-58
2023/09/19 12:11:49;;;;;;;0.00;0.00;;;21.70;42.40;;;;;;5051010;28;20219;-59
2023/09/19 12:14:26;;;;;;;0.00;0.00;;;21.70;42.40;;;;;;5051050;28;20207;-57
2023/09/19 12:16:58;;;;;;;0.10;0.10;;;21.70;42.40;;;;;;5050777;28;20226;-59
2023/09/19 12:19:29;;;;;;;0.08;0.08;;;21.70;42.40;;;;;;5053014;28;20294;-56
2023/09/19 12:22:05;;;;;;;0.00;0.00;;;21.70;42.50;;;;;;5054423;28;20222;-59
2023/09/19 12:24:38;;;;;;;0.00;0.00;;;21.70;42.50;;;;;;5054472;28;20199;-56
2023/09/19 12:27:09;;;;;;;0.00;0.00;;;21.70;42.50;;;;;;5055264;28;20199;-61
2023/09/19 12:29:48;;;;;;;0.00;0.00;;;21.70;42.50;;;;;;5074208;28;20331;-59
2023/09/19 12:32:20;;;;;;;0.00;0.00;;;21.70;43.20;;;;;;5074861;28;20230;-61
2023/09/19 12:34:59;;;;;;;0.00;0.00;;;21.70;42.50;;;;;;5074377;28;20275;-57
2023/09/19 12:37:34;;;;;;;0.00;0.00;;;21.70;42.50;;;;;;5074727;28;20258;-58
2023/09/19 12:40:17;;;;;;;0.00;0.00;;;21.70;42.60;;;;;;5074592;28;20214;-58
2023/09/19 12:42:49;;;;;;;0.00;0.00;;;21.70;42.60;;;;;;5074492;28;20206;-58
2023/09/19 12:45:21;;;;;;;0.00;0.00;;;21.70;42.50;;;;;;5074702;28;20206;-54
2023/09/19 12:48:22;;;;;;;0.00;0.00;;;21.60;42.50;;;;;;5074866;28;20650;-58
2023/09/19 12:51:07;;;;;;;0.00;0.00;;;21.60;42.50;;;;;;5074739;28;20221;-60
2023/09/19 12:53:42;;;;;;;0.00;0.00;;;21.60;42.50;;;;;;5073998;28;20206;-61
2023/09/19 12:56:14;;;;;;;0.00;0.00;;;21.60;42.50;;;;;;5074702;28;20302;-61
2023/09/19 12:58:55;;;;;;;0.10;0.10;;;21.60;42.50;;;;;;5074287;28;20616;-58
2023/09/19 13:01:27;;;;;;;0.00;0.00;;;21.60;42.60;;;;;;5073834;28;20261;-61
2023/09/19 13:04:18;;;;;;;0.00;0.00;;;21.60;42.50;;;;;;5073932;28;20222;-61
2023/09/19 13:06:48;;;;;;;0.00;0.00;;;21.60;42.60;;;;;;5073842;28;20581;-60
2023/09/19 13:09:22;;;;;;;0.00;0.00;;;21.60;42.60;;;;;;5074036;28;20293;-61
2023/09/19 13:11:53;;;;;;;0.00;0.00;;;21.60;42.60;;;;;;5073518;28;20257;-62
2023/09/19 13:14:27;;;;;;;0.00;0.00;;;21.60;42.70;;;;;;5073325;28;20277;-63
2023/09/19 13:17:08;;;;;;;0.00;0.00;;;21.60;42.70;;;;;;5072673;28;20516;-61
2023/09/19 13:19:43;;;;;;;0.00;0.00;;;21.50;42.60;;;;;;5073256;28;20313;-57
2023/09/19 13:22:42;;;;;;;0.10;0.10;;;21.50;42.60;;;;;;5074124;28;20229;-56
2023/09/19 13:25:17;;;;;;;0.00;0.00;;;21.50;42.70;;;;;;5073678;28;20202;-58
2023/09/19 13:27:51;;;;;;;0.00;0.00;;;21.50;42.60;;;;;;5073582;28;20326;-60